Time;durP1;ratioP1;P1;durP2;ratioP2;P2;SDS_P1;SDS_P2;PMS_P1;PMS_P2;Temp;Humidity;BMP_temperature;BMP_pressure;BME280_temperature;BME280_humidity;BME280_pressure;Samples;Min_cycle;Max_cycle;Signal;HPM_P1;HPM_P2
2022/01/19 00:01:05;;;;;;;13.23;7.72;;;;;;;6.20;71.67;101619.88;5004925;28;20513;-83
2022/01/19 00:03:34;;;;;;;14.88;8.18;;;;;;;6.22;71.05;101617.19;4968974;28;20057;-83
2022/01/19 00:06:00;;;;;;;21.20;7.72;;;;;;;6.20;71.71;101621.69;4974241;28;20061;-84
2022/01/19 00:08:28;;;;;;;13.63;8.50;;;;;;;6.20;71.75;101619.88;4967679;28;20052;-81
2022/01/19 00:10:56;;;;;;;15.10;8.23;;;;;;;6.20;71.73;101611.13;4999156;28;20064;-81
2022/01/19 00:13:22;;;;;;;11.93;7.25;;;;;;;6.19;71.87;101604.16;4984595;28;20053;-81
2022/01/19 00:15:50;;;;;;;14.48;7.70;;;;;;;6.19;71.75;101591.81;4943662;28;20113;-81
2022/01/19 00:18:19;;;;;;;18.85;8.70;;;;;;;6.19;71.84;101575.13;4961851;28;20505;-81
2022/01/19 00:20:47;;;;;;;15.88;8.32;;;;;;;6.19;71.67;101562.78;4988780;28;20058;-82
2022/01/19 00:23:16;;;;;;;13.25;7.03;;;;;;;6.19;71.57;101559.31;5002334;28;20516;-81
2022/01/19 00:25:43;;;;;;;19.00;8.90;;;;;;;6.19;71.61;101567.22;4954078;28;20708;-82
2022/01/19 00:28:10;;;;;;;11.65;6.03;;;;;;;6.17;71.23;101567.28;4980403;28;20054;-81
2022/01/19 00:30:37;;;;;;;15.13;7.57;;;;;;;6.18;71.62;101568.13;4999006;28;20409;-82
2022/01/19 00:33:04;;;;;;;19.00;8.18;;;;;;;6.17;71.39;101572.56;4975557;28;20610;-81
2022/01/19 00:35:35;;;;;;;17.05;8.27;;;;;;;6.15;71.17;101579.66;4988405;28;20050;-82
2022/01/19 00:38:03;;;;;;;17.08;9.23;;;;;;;6.16;71.60;101585.81;4994022;28;20039;-81
2022/01/19 00:40:30;;;;;;;18.23;8.95;;;;;;;6.16;71.72;101591.09;4984401;28;20042;-81
2022/01/19 00:42:57;;;;;;;15.40;8.52;;;;;;;6.14;71.42;101590.28;4972332;28;20081;-81
2022/01/19 00:45:25;;;;;;;16.75;8.73;;;;;;;6.14;71.23;101593.78;4965228;28;20042;-84
2022/01/19 00:47:52;;;;;;;13.95;8.45;;;;;;;6.15;71.44;101597.28;5015091;28;20042;-83
2022/01/19 00:50:25;;;;;;;15.85;8.45;;;;;;;6.13;70.91;101597.34;4985723;28;20589;-83
2022/01/19 00:52:52;;;;;;;14.32;8.13;;;;;;;6.12;71.10;101598.25;4996328;28;20485;-84
2022/01/19 00:55:22;;;;;;;14.82;8.25;;;;;;;6.11;71.12;101591.28;4965973;28;20034;-83
2022/01/19 00:57:49;;;;;;;13.73;8.00;;;;;;;6.11;71.59;101586.00;4986725;28;20117;-84
2022/01/19 01:00:19;;;;;;;16.65;7.50;;;;;;;6.12;71.75;101578.94;4993058;28;20042;-84
2022/01/19 01:02:46;;;;;;;16.50;7.53;;;;;;;6.11;71.36;101588.66;4974713;28;20042;-83
2022/01/19 01:05:15;;;;;;;17.55;7.93;;;;;;;6.10;71.13;101584.28;4958196;28;20426;-83
2022/01/19 01:07:42;;;;;;;19.10;8.65;;;;;;;6.11;71.33;101583.38;4988506;28;20053;-83
2022/01/19 01:10:11;;;;;;;14.30;8.10;;;;;;;6.10;71.25;101584.28;4958310;28;20050;-83
2022/01/19 01:12:47;;;;;;;13.57;6.53;;;;;;;6.10;71.22;101576.34;4970008;28;20058;-83
2022/01/19 01:20:35;;;;;;;16.80;6.53;;;;;;;6.07;70.94;101560.66;4976028;28;20165;-83
2022/01/19 01:23:04;;;;;;;11.50;5.85;;;;;;;6.05;70.90;101555.44;4977055;28;20105;-83
2022/01/19 01:25:31;;;;;;;15.38;6.97;;;;;;;6.06;70.84;101556.34;4956639;28;20065;-83
2022/01/19 01:27:57;;;;;;;16.75;6.95;;;;;;;6.05;70.59;101537.00;4946479;28;20042;-84
2022/01/19 01:30:24;;;;;;;10.00;5.80;;;;;;;6.04;70.64;101514.19;4974063;28;20039;-83
2022/01/19 01:32:51;;;;;;;13.95;7.15;;;;;;;6.05;70.70;101517.69;4973711;28;20807;-83
2022/01/19 01:35:18;;;;;;;18.75;8.07;;;;;;;6.02;70.47;101510.75;4987896;28;20042;-84
2022/01/19 01:37:46;;;;;;;15.07;6.50;;;;;;;6.02;70.66;101516.03;4993983;28;20066;-83
2022/01/19 01:40:14;;;;;;;16.40;6.22;;;;;;;6.01;70.68;101524.88;5001707;28;20122;-83
2022/01/19 01:42:45;;;;;;;16.00;6.32;;;;;;;5.98;70.55;101530.28;4969209;28;20042;-83
2022/01/19 01:45:17;;;;;;;12.68;6.18;;;;;;;5.96;70.46;101542.66;4946764;28;20426;-83
2022/01/19 01:47:50;;;;;;;11.73;6.18;;;;;;;5.94;70.43;101548.94;4986034;28;20832;-83
2022/01/19 01:55:48;;;;;;;15.00;7.40;;;;;;;5.87;70.32;101550.91;4920576;28;20495;-83
2022/01/19 01:58:15;;;;;;;12.50;5.45;;;;;;;5.85;70.29;101545.72;4990349;28;20084;-84
2022/01/19 02:00:53;;;;;;;15.25;6.25;;;;;;;5.83;69.88;101538.81;4980438;28;20050;-84
2022/01/19 02:03:21;;;;;;;11.95;5.85;;;;;;;5.82;70.04;101531.78;4996505;28;20046;-84
2022/01/19 02:09:11;;;;;;;10.10;5.20;;;;;;;5.77;70.08;101516.16;4929559;28;20102;-84
2022/01/19 02:23:20;;;;;;;13.07;5.60;;;;;;;5.66;70.14;101478.88;4948715;28;20133;-83
2022/01/19 02:25:52;;;;;;;17.15;5.50;;;;;;;5.65;69.83;101472.75;4977999;28;20112;-84
2022/01/19 02:36:51;;;;;;;12.25;5.75;;;;;;;5.60;69.73;101458.06;4984813;28;20493;-83
2022/01/19 02:42:08;;;;;;;14.90;5.47;;;;;;;5.56;69.73;101454.66;4939477;28;20046;-84
2022/01/19 02:49:50;;;;;;;13.27;5.80;;;;;;;5.57;70.14;101426.53;5012851;28;20109;-84
2022/01/19 02:52:18;;;;;;;10.57;5.00;;;;;;;5.57;70.17;101424.78;4991570;28;20053;-84
2022/01/19 02:54:46;;;;;;;13.73;5.35;;;;;;;5.56;70.19;101423.06;4963191;28;20129;-84
2022/01/19 02:57:14;;;;;;;18.50;6.93;;;;;;;5.56;69.87;101424.84;4984911;28;20058;-83
2022/01/19 03:10:40;;;;;;;11.65;5.40;;;;;;;5.47;69.84;101412.91;4935856;28;20049;-84
2022/01/19 03:13:07;;;;;;;11.45;5.57;;;;;;;5.47;69.73;101415.56;4984196;28;20049;-84
2022/01/19 03:15:33;;;;;;;13.80;5.85;;;;;;;5.45;69.60;101401.59;4981141;28;20046;-84
2022/01/19 03:18:01;;;;;;;12.00;4.95;;;;;;;5.45;69.86;101398.94;4974809;28;20050;-84
2022/01/19 03:20:29;;;;;;;10.10;4.53;;;;;;;5.44;69.92;101395.47;4971846;28;20069;-83
2022/01/19 03:25:26;;;;;;;7.07;3.75;;;;;;;5.45;69.78;101393.69;4958005;28;20058;-83
2022/01/19 03:27:53;;;;;;;9.75;3.95;;;;;;;5.43;69.67;101395.50;4978532;28;20051;-84
2022/01/19 03:30:22;;;;;;;10.05;4.15;;;;;;;5.42;70.01;101386.75;4961643;28;20039;-83
2022/01/19 03:32:49;;;;;;;10.85;4.22;;;;;;;5.43;69.83;101388.47;4995757;28;20043;-83
2022/01/19 03:35:16;;;;;;;8.13;4.68;;;;;;;5.42;69.71;101392.03;4971910;28;20047;-83
2022/01/19 03:37:44;;;;;;;11.30;5.10;;;;;;;5.41;69.65;101387.66;4966738;28;20046;-83
2022/01/19 03:40:11;;;;;;;10.07;5.03;;;;;;;5.40;69.70;101396.50;4980102;28;20050;-83
2022/01/19 03:42:40;;;;;;;10.68;5.22;;;;;;;5.39;69.77;101393.91;4997951;28;20494;-85
2022/01/19 03:45:09;;;;;;;14.07;5.85;;;;;;;5.37;69.66;101385.25;4995052;28;20054;-83
2022/01/19 03:47:41;;;;;;;15.23;6.00;;;;;;;5.36;69.62;101388.78;4975961;28;20069;-83
2022/01/19 03:50:09;;;;;;;17.63;6.75;;;;;;;5.32;69.53;101376.69;5002445;28;20050;-83
2022/01/19 03:52:36;;;;;;;16.10;6.32;;;;;;;5.29;69.39;101351.31;4964274;28;20050;-83
2022/01/19 03:55:04;;;;;;;14.60;6.32;;;;;;;5.27;69.06;101358.44;4985141;28;20097;-83
2022/01/19 03:57:31;;;;;;;14.68;5.75;;;;;;;5.24;69.30;101350.66;4979037;28;20062;-83
2022/01/19 03:59:58;;;;;;;13.80;6.20;;;;;;;5.23;69.48;101362.94;4982226;28;20378;-84
2022/01/19 04:02:25;;;;;;;17.20;6.85;;;;;;;5.22;69.47;101353.34;4984147;28;20497;-84
2022/01/19 04:05:03;;;;;;;15.05;7.50;;;;;;;5.21;69.43;101340.22;5013793;28;20413;-84
2022/01/19 04:07:37;;;;;;;15.05;6.78;;;;;;;5.17;69.26;101318.47;4996470;28;20074;-83
2022/01/19 04:10:04;;;;;;;14.57;6.60;;;;;;;5.16;68.98;101302.72;4956337;28;20554;-83
2022/01/19 04:15:13;;;;;;;16.13;7.18;;;;;;;5.12;69.17;101277.44;4994058;28;20050;-83
2022/01/19 04:17:46;;;;;;;19.60;7.50;;;;;;;5.11;69.22;101267.81;4985028;28;20051;-83
2022/01/19 04:20:13;;;;;;;17.30;8.73;;;;;;;5.09;69.15;101261.75;4932837;28;20126;-79
2022/01/19 04:22:41;;;;;;;22.50;8.65;;;;;;;5.06;68.86;101257.47;4970819;28;20050;-78
2022/01/19 04:25:09;;;;;;;28.52;11.63;;;;;;;5.03;68.89;101247.09;4970422;28;20050;-78
2022/01/19 04:27:37;;;;;;;41.40;17.10;;;;;;;5.03;69.18;101235.69;4968185;28;20057;-78
2022/01/19 04:30:10;;;;;;;41.25;16.00;;;;;;;5.01;68.95;101243.66;4968847;28;20046;-78
2022/01/19 04:35:23;;;;;;;48.13;29.65;;;;;;;4.98;69.21;101223.59;4954475;28;20045;-78
2022/01/19 04:38:51;;;;;;;23.33;12.45;;;;;;;4.97;69.10;101227.16;4931950;28;20053;-78
2022/01/19 04:46:47;;;;;;;21.48;10.18;;;;;;;4.95;69.66;101225.50;4940760;28;20046;-78
2022/01/19 04:54:50;;;;;;;23.23;10.68;;;;;;;4.93;69.49;101216.81;5010015;28;20498;-78
2022/01/19 05:06:12;;;;;;;31.70;12.77;;;;;;;4.87;68.88;101222.34;4884571;28;20063;-78
2022/01/19 05:09:04;;;;;;;30.33;10.25;;;;;;;4.82;69.22;101206.75;4941885;28;20055;-79
2022/01/19 05:14:17;;;;;;;27.95;10.20;;;;;;;4.76;69.06;101184.19;4944283;28;20047;-78
2022/01/19 05:16:45;;;;;;;28.05;11.48;;;;;;;4.75;68.72;101192.97;4905810;28;20125;-78
2022/01/19 05:19:14;;;;;;;36.13;13.27;;;;;;;4.73;68.57;101183.44;4906685;28;20048;-78
2022/01/19 05:21:44;;;;;;;41.05;14.45;;;;;;;4.73;68.74;101189.59;4920428;28;20047;-78
2022/01/19 05:24:20;;;;;;;41.95;14.23;;;;;;;4.69;68.71;101190.63;4960664;28;20051;-78
2022/01/19 05:27:09;;;;;;;35.55;12.70;;;;;;;4.69;68.82;101189.78;4911424;28;20602;-78
2022/01/19 05:29:36;;;;;;;33.95;12.80;;;;;;;4.70;68.87;101196.72;4991432;28;20438;-78
2022/01/19 05:32:03;;;;;;;35.90;14.20;;;;;;;4.64;68.42;101197.84;4979232;28;20049;-78
2022/01/19 05:34:35;;;;;;;56.60;17.95;;;;;;;4.63;68.60;101201.41;4985813;28;20046;-78
2022/01/19 05:37:15;;;;;;;52.85;15.05;;;;;;;4.60;68.45;101201.53;4951041;28;20482;-78
2022/01/19 05:39:53;;;;;;;40.95;14.02;;;;;;;4.59;68.61;101204.22;4996626;28;20054;-79
2022/01/19 05:42:25;;;;;;;43.55;14.40;;;;;;;4.56;68.46;101195.53;4964973;28;20432;-78
2022/01/19 05:44:52;;;;;;;49.80;13.18;;;;;;;4.58;68.38;101198.13;4938396;28;20409;-78
2022/01/19 05:47:21;;;;;;;35.53;13.10;;;;;;;4.58;68.70;101203.38;4955598;28;20049;-79
2022/01/19 05:49:48;;;;;;;33.92;12.35;;;;;;;4.55;68.70;101212.25;4996684;28;20050;-77
2022/01/19 05:52:16;;;;;;;27.48;10.15;;;;;;;4.54;68.61;101207.06;4970057;28;20046;-78
2022/01/19 05:54:46;;;;;;;24.45;10.25;;;;;;;4.52;68.42;101215.00;4966970;28;20485;-78
2022/01/19 05:57:13;;;;;;;26.20;10.85;;;;;;;4.53;68.52;101214.09;4963781;28;20347;-78
2022/01/19 05:59:42;;;;;;;26.17;11.63;;;;;;;4.50;68.75;101214.22;4942791;28;20047;-79
2022/01/19 06:02:38;;;;;;;33.35;11.48;;;;;;;4.43;68.67;101219.81;4961140;28;20038;-79
2022/01/19 06:05:06;;;;;;;27.10;10.75;;;;;;;4.49;68.64;101217.75;4930845;28;20050;-77
2022/01/19 06:08:28;;;;;;;26.10;10.45;;;;;;;4.46;68.77;101210.00;4939269;28;20199;-78
2022/01/19 06:11:01;;;;;;;27.10;10.57;;;;;;;4.44;68.97;101198.69;4891758;28;20139;-78
2022/01/19 06:13:32;;;;;;;28.45;10.80;;;;;;;4.44;68.71;101193.41;4964461;28;20062;-78
2022/01/19 06:16:01;;;;;;;29.42;10.95;;;;;;;4.42;69.02;101183.88;4950279;28;20058;-77
2022/01/19 06:18:28;;;;;;;27.13;11.52;;;;;;;4.43;69.09;101186.47;4921729;28;20062;-78
2022/01/19 06:20:55;;;;;;;29.58;12.52;;;;;;;4.44;68.93;101182.91;4940184;28;20130;-79
2022/01/19 06:23:34;;;;;;;33.42;11.57;;;;;;;4.43;68.90;101185.59;4927470;28;20058;-79
2022/01/19 06:26:04;;;;;;;31.35;11.88;;;;;;;4.39;68.85;101176.13;4940865;28;20145;-78
2022/01/19 06:28:32;;;;;;;27.77;10.93;;;;;;;4.40;68.44;101188.34;4944757;28;20042;-79
2022/01/19 06:30:59;;;;;;;33.97;12.05;;;;;;;4.37;68.28;101185.84;4951969;28;20170;-84
2022/01/19 06:33:26;;;;;;;30.55;13.07;;;;;;;4.33;68.34;101178.09;4942051;28;20046;-84
2022/01/19 06:35:55;;;;;;;29.05;11.60;;;;;;;4.31;68.11;101184.31;4951313;28;20229;-87
2022/01/19 06:38:31;;;;;;;30.15;13.43;;;;;;;4.28;68.23;101187.09;5003155;28;20402;-80
2022/01/19 06:41:07;;;;;;;30.13;11.85;;;;;;;4.25;68.19;101181.94;4989355;28;20133;-80
2022/01/19 06:43:39;;;;;;;28.77;10.82;;;;;;;4.22;68.18;101187.31;4968390;28;20057;-80
2022/01/19 06:46:08;;;;;;;28.08;11.82;;;;;;;4.21;68.18;101177.72;4932598;28;20066;-83
2022/01/19 06:48:35;;;;;;;27.95;11.95;;;;;;;4.20;68.15;101184.78;4991953;28;20401;-83
2022/01/19 06:51:06;;;;;;;25.95;11.05;;;;;;;4.19;68.29;101179.56;4999110;28;20049;-84
2022/01/19 06:53:41;;;;;;;24.92;10.82;;;;;;;4.16;68.14;101182.31;4968577;28;20058;-84
2022/01/19 06:56:16;;;;;;;29.92;12.85;;;;;;;4.14;68.30;101171.84;4984466;28;20134;-83
2022/01/19 06:58:44;;;;;;;37.75;13.02;;;;;;;4.13;68.22;101176.25;4963813;28;20046;-83
2022/01/19 07:01:33;;;;;;;26.77;12.15;;;;;;;4.09;68.19;101177.28;4979678;28;20125;-83
2022/01/19 07:04:25;;;;;;;33.35;12.55;;;;;;;4.07;68.24;101175.63;4954909;28;20105;-83
2022/01/19 07:06:52;;;;;;;32.88;12.60;;;;;;;4.07;68.23;101166.00;4981377;28;20043;-83
2022/01/19 07:09:28;;;;;;;33.53;12.20;;;;;;;4.05;68.12;101162.56;5005805;28;20070;-83
2022/01/19 07:11:59;;;;;;;31.30;12.55;;;;;;;4.05;68.27;101164.34;4976231;28;20077;-83
2022/01/19 07:14:28;;;;;;;30.02;12.25;;;;;;;4.04;68.18;101167.88;4958848;28;20085;-83
2022/01/19 07:16:56;;;;;;;30.77;12.00;;;;;;;4.03;68.44;101167.03;4982595;28;20056;-83
2022/01/19 07:19:23;;;;;;;26.48;12.07;;;;;;;4.04;68.23;101166.09;4966735;28;20105;-83
2022/01/19 07:21:50;;;;;;;28.30;11.85;;;;;;;4.01;68.11;101166.22;4957530;28;20125;-84
2022/01/19 07:24:17;;;;;;;33.83;13.07;;;;;;;3.98;67.97;101153.22;4966734;28;20049;-83
2022/01/19 07:26:44;;;;;;;30.20;12.68;;;;;;;3.98;68.23;101153.22;4970347;28;20054;-84
2022/01/19 07:29:13;;;;;;;28.40;12.32;;;;;;;3.97;68.27;101151.53;4954344;28;20042;-83
2022/01/19 07:31:43;;;;;;;29.40;12.60;;;;;;;3.96;68.41;101144.53;4982053;28;20054;-83
2022/01/19 07:34:10;;;;;;;32.10;12.35;;;;;;;3.95;68.09;101148.09;4962169;28;20042;-83
2022/01/19 07:36:40;;;;;;;34.55;12.82;;;;;;;3.94;68.10;101145.50;4978341;28;20043;-83
2022/01/19 07:39:08;;;;;;;35.63;13.55;;;;;;;3.92;68.42;101148.22;4976440;28;20152;-83
2022/01/19 07:41:38;;;;;;;32.67;11.35;;;;;;;3.91;68.08;101141.22;4974668;28;20057;-83
2022/01/19 07:44:39;;;;;;;28.88;11.80;;;;;;;3.88;68.12;101136.97;5000591;28;20469;-84
2022/01/19 07:47:32;;;;;;;28.58;12.32;;;;;;;3.86;68.38;101138.78;4936321;28;20054;-83
2022/01/19 07:50:02;;;;;;;32.92;12.00;;;;;;;3.85;68.36;101139.72;4991689;28;20521;-83
2022/01/19 07:52:47;;;;;;;28.80;12.05;;;;;;;3.84;68.38;101135.38;4996346;28;20053;-83
2022/01/19 07:55:29;;;;;;;26.75;12.27;;;;;;;3.84;68.45;101126.63;4942320;28;20545;-83
2022/01/19 07:58:29;;;;;;;33.95;12.57;;;;;;;3.82;68.36;101118.81;4882328;28;20537;-85
2022/01/19 08:01:16;;;;;;;28.98;13.50;;;;;;;3.82;68.57;101113.56;4953639;28;20050;-84
2022/01/19 08:03:55;;;;;;;35.80;14.65;;;;;;;3.83;68.60;101104.75;4973864;28;20061;-86
2022/01/19 08:06:26;;;;;;;41.63;16.48;;;;;;;3.83;68.66;101104.75;4990984;28;20049;-86
2022/01/19 08:08:55;;;;;;;44.60;18.08;;;;;;;3.84;69.19;101108.22;4962424;28;20574;-85
2022/01/19 08:11:21;;;;;;;41.40;16.95;;;;;;;3.86;69.10;101116.91;4972724;28;20487;-87
2022/01/19 08:13:57;;;;;;;38.05;16.30;;;;;;;3.87;69.02;101111.59;4971564;28;20412;-85
2022/01/19 08:16:24;;;;;;;39.67;16.30;;;;;;;3.86;69.09;101117.75;4976419;28;20097;-84
2022/01/19 08:18:51;;;;;;;44.65;16.65;;;;;;;3.86;68.83;101114.28;4982334;28;20085;-85
2022/01/19 08:21:19;;;;;;;39.92;18.60;;;;;;;3.85;68.80;101116.06;4988974;28;20372;-85
2022/01/19 08:23:53;;;;;;;48.20;20.02;;;;;;;3.84;68.75;101116.13;4985288;28;20047;-85
2022/01/19 08:26:21;;;;;;;41.78;16.45;;;;;;;3.83;68.88;101117.03;4981431;28;20157;-85
2022/01/19 08:28:53;;;;;;;36.10;16.05;;;;;;;3.81;68.92;101113.63;4968351;28;20206;-86
2022/01/19 08:31:22;;;;;;;49.67;19.73;;;;;;;3.81;68.80;101106.59;4960838;28;20101;-84
2022/01/19 08:34:07;;;;;;;59.17;22.27;;;;;;;3.83;69.20;101111.78;4970076;28;20065;-85
2022/01/19 08:36:58;;;;;;;46.75;18.17;;;;;;;3.83;69.24;101117.03;4936951;28;20061;-83
2022/01/19 08:39:34;;;;;;;51.35;19.55;;;;;;;3.83;69.13;101106.53;4991363;28;20054;-84
2022/01/19 08:42:03;;;;;;;54.53;19.65;;;;;;;3.84;69.14;101110.84;4959526;28;20171;-82
2022/01/19 08:44:30;;;;;;;54.95;21.30;;;;;;;3.85;69.33;101097.66;4976397;28;20050;-83
2022/01/19 08:47:13;;;;;;;47.72;18.88;;;;;;;3.83;69.50;101094.25;4937377;28;20057;-84
2022/01/19 08:50:13;;;;;;;37.63;16.80;;;;;;;3.84;69.26;101102.97;4969731;28;20081;-84
2022/01/19 08:53:06;;;;;;;46.25;18.23;;;;;;;3.83;69.44;101099.50;4985039;28;20185;-84
2022/01/19 08:55:50;;;;;;;49.27;20.80;;;;;;;3.81;69.58;101103.09;4981208;28;20069;-81
2022/01/19 08:58:17;;;;;;;53.55;19.70;;;;;;;3.83;69.52;101096.88;4997624;28;20491;-84
2022/01/19 09:00:46;;;;;;;46.47;19.25;;;;;;;3.87;69.66;101102.88;4964967;28;20047;-83
2022/01/19 09:03:15;;;;;;;46.03;17.65;;;;;;;3.86;69.55;101104.63;4991560;28;20607;-84
2022/01/19 09:05:43;;;;;;;42.72;16.92;;;;;;;3.88;69.65;101101.94;4976896;28;20070;-85
2022/01/19 09:08:11;;;;;;;43.53;17.27;;;;;;;3.90;69.66;101100.97;5005314;28;20054;-83
2022/01/19 09:10:40;;;;;;;54.92;19.40;;;;;;;3.90;69.74;101092.25;4986333;28;20405;-85
2022/01/19 09:13:09;;;;;;;52.03;20.90;;;;;;;3.92;69.75;101093.03;5007134;28;20093;-85
2022/01/19 09:15:38;;;;;;;50.25;21.83;;;;;;;3.92;69.92;101099.13;5013575;28;20430;-84
2022/01/19 09:18:04;;;;;;;48.85;19.83;;;;;;;3.96;69.91;101099.84;4999603;28;20117;-85
2022/01/19 09:20:31;;;;;;;57.30;19.08;;;;;;;3.98;70.14;101094.56;4985900;28;20080;-80
2022/01/19 09:22:59;;;;;;;52.90;20.05;;;;;;;4.00;69.98;101092.72;4949105;28;20442;-84
2022/01/19 09:25:26;;;;;;;47.40;19.95;;;;;;;4.00;70.06;101093.56;4984117;28;20124;-84
2022/01/19 09:27:53;;;;;;;49.85;20.42;;;;;;;4.03;70.41;101087.34;4991763;28;20401;-84
2022/01/19 09:30:22;;;;;;;50.80;19.67;;;;;;;4.04;70.31;101084.63;4980264;28;20490;-84
2022/01/19 09:33:09;;;;;;;43.80;19.65;;;;;;;4.05;70.35;101075.00;4970247;28;20050;-85
2022/01/19 09:38:38;;;;;;;47.85;19.88;;;;;;;4.06;70.54;101064.41;4943603;28;20396;-84
2022/01/19 09:41:07;;;;;;;53.38;19.73;;;;;;;4.10;70.66;101062.50;4951302;28;20043;-83
2022/01/19 09:43:35;;;;;;;51.53;20.33;;;;;;;4.12;70.62;101061.53;4962310;28;20104;-82
2022/01/19 09:46:03;;;;;;;54.50;18.35;;;;;;;4.13;70.75;101050.09;4989997;28;20058;-84
2022/01/19 09:48:30;;;;;;;50.13;19.95;;;;;;;4.16;70.43;101051.72;4987968;28;20060;-85
2022/01/19 09:50:57;;;;;;;52.80;20.05;;;;;;;4.17;70.51;101042.06;4967657;28;20050;-84
2022/01/19 09:53:25;;;;;;;49.88;19.63;;;;;;;4.18;70.59;101034.13;4958533;28;20050;-85
2022/01/19 09:55:52;;;;;;;47.92;18.52;;;;;;;4.21;70.63;101036.59;4937856;28;20039;-85
2022/01/19 09:58:21;;;;;;;47.78;19.02;;;;;;;4.22;70.61;101042.72;4970536;28;20051;-85
2022/01/19 10:00:49;;;;;;;47.05;18.38;;;;;;;4.24;70.77;101033.00;4928025;28;20489;-84
2022/01/19 10:03:28;;;;;;;43.22;17.85;;;;;;;4.22;70.64;101034.84;4959272;28;20137;-83
2022/01/19 10:05:57;;;;;;;39.25;16.70;;;;;;;4.26;70.92;101029.38;5003463;28;20053;-85
2022/01/19 10:08:35;;;;;;;49.00;19.17;;;;;;;4.24;70.74;101027.75;4994641;28;20149;-85
2022/01/19 10:11:05;;;;;;;50.38;19.20;;;;;;;4.30;70.88;101017.81;4990186;28;20109;-84
2022/01/19 10:19:22;;;;;;;46.28;18.25;;;;;;;4.27;70.84;101004.78;4950049;28;20046;-86
2022/01/19 10:22:29;;;;;;;39.63;15.35;;;;;;;4.25;71.34;101004.03;4963560;28;20043;-85
2022/01/19 10:25:03;;;;;;;35.20;13.60;;;;;;;4.34;71.53;101003.59;4916899;28;20049;-86
2022/01/19 10:27:42;;;;;;;31.23;14.00;;;;;;;4.34;71.45;100994.88;5014777;28;20052;-82
2022/01/19 10:30:09;;;;;;;32.63;12.18;;;;;;;4.40;71.67;100999.88;4982633;28;20062;-86
2022/01/19 10:32:46;;;;;;;37.08;13.18;;;;;;;4.42;71.45;101010.31;4981123;28;20042;-85
2022/01/19 10:35:19;;;;;;;41.50;14.95;;;;;;;4.43;71.35;100989.22;4974584;28;20046;-86
2022/01/19 10:38:09;;;;;;;36.50;14.33;;;;;;;4.43;71.45;100991.00;4990322;28;20101;-85
2022/01/19 10:40:37;;;;;;;38.15;14.00;;;;;;;4.43;71.71;100985.72;4950447;28;20445;-85
2022/01/19 10:43:30;;;;;;;30.23;13.43;;;;;;;4.37;71.75;100996.50;4957355;28;20038;-84
2022/01/19 10:46:00;;;;;;;35.65;15.00;;;;;;;4.42;71.72;100984.00;4991705;28;20046;-86
2022/01/19 10:48:36;;;;;;;41.83;15.32;;;;;;;4.44;71.69;100975.13;4990634;28;20150;-87
2022/01/19 10:51:09;;;;;;;36.22;15.02;;;;;;;4.44;71.95;100969.00;4945409;28;20130;-81
2022/01/19 10:53:36;;;;;;;40.92;15.05;;;;;;;4.47;71.87;100964.47;4957960;28;20054;-84
2022/01/19 10:56:05;;;;;;;40.17;15.50;;;;;;;4.50;71.93;100971.34;4958250;28;20140;-83
2022/01/19 10:58:33;;;;;;;32.58;15.18;;;;;;;4.50;71.63;100964.34;4983649;28;20042;-87
2022/01/19 11:01:00;;;;;;;41.78;15.77;;;;;;;4.51;71.65;100966.03;4950627;28;20562;-88
2022/01/19 11:03:29;;;;;;;34.03;15.20;;;;;;;4.51;71.59;100963.41;4968178;28;20413;-87
2022/01/19 11:06:00;;;;;;;38.35;15.32;;;;;;;4.51;71.51;100952.03;4956489;28;20050;-87
2022/01/19 11:08:29;;;;;;;36.78;17.73;;;;;;;4.55;71.72;100958.84;4980881;28;20050;-88
2022/01/19 11:10:58;;;;;;;41.65;17.85;;;;;;;4.55;71.43;100943.94;4968646;28;20568;-88
2022/01/19 11:16:01;;;;;;;38.80;15.65;;;;;;;4.57;71.08;100957.84;4985405;28;20125;-88
2022/01/19 11:18:30;;;;;;;38.33;16.05;;;;;;;4.58;71.31;100945.59;4984057;28;20037;-87
2022/01/19 11:21:02;;;;;;;34.65;15.55;;;;;;;4.55;71.16;100946.59;4978373;28;20127;-88
2022/01/19 11:23:54;;;;;;;36.58;14.43;;;;;;;4.47;71.40;100943.41;4963046;28;20814;-88
2022/01/19 11:26:23;;;;;;;34.55;13.90;;;;;;;4.53;71.31;100932.63;4954488;28;20070;-87
2022/01/19 11:28:50;;;;;;;40.83;15.45;;;;;;;4.56;71.45;100929.00;4983825;28;20092;-87
2022/01/19 11:31:23;;;;;;;34.83;14.68;;;;;;;4.52;71.23;100917.75;4981540;28;20061;-89
2022/01/19 11:33:53;;;;;;;34.65;15.23;;;;;;;4.73;74.54;100920.31;4998610;28;20050;-87
2022/01/19 11:36:29;;;;;;;38.22;14.93;;;;;;;4.75;72.92;100916.69;4947893;28;20046;-88
2022/01/19 11:39:20;;;;;;;42.10;16.38;;;;;;;4.62;71.79;100907.66;4978254;28;20397;-88
2022/01/19 11:41:54;;;;;;;37.15;14.50;;;;;;;4.67;71.92;100903.03;4988440;28;20057;-87
2022/01/19 11:44:27;;;;;;;37.33;14.50;;;;;;;4.65;71.94;100904.88;5007352;28;20533;-86
2022/01/19 11:47:23;;;;;;;34.75;14.38;;;;;;;4.59;71.53;100896.44;4996374;28;20046;-89
2022/01/19 11:49:55;;;;;;;38.45;15.65;;;;;;;4.63;71.86;100898.88;4971582;28;20061;-84
2022/01/19 11:52:27;;;;;;;31.40;14.38;;;;;;;4.67;71.67;100883.78;4972330;28;20043;-87
2022/01/19 11:55:17;;;;;;;32.47;13.98;;;;;;;4.61;71.93;100884.09;4982275;28;20621;-86
2022/01/19 11:57:47;;;;;;;46.00;14.68;;;;;;;4.60;71.72;100885.84;4977491;28;20409;-87
2022/01/19 12:00:23;;;;;;;35.92;14.13;;;;;;;4.55;71.86;100882.56;4968748;28;20108;-88
2022/01/19 12:02:57;;;;;;;38.72;16.25;;;;;;;4.60;71.68;100883.22;4974427;28;20065;-89
2022/01/19 12:05:44;;;;;;;37.63;15.20;;;;;;;4.62;71.50;100880.53;5004706;28;20042;-89
2022/01/19 12:08:27;;;;;;;41.72;15.45;;;;;;;4.53;71.52;100874.78;4986264;28;20053;-89
2022/01/19 12:11:16;;;;;;;42.85;17.40;;;;;;;4.57;71.67;100878.09;4993408;28;20050;-88
2022/01/19 12:18:53;;;;;;;43.00;17.05;;;;;;;4.56;71.57;100866.72;4981877;28;20041;-90
2022/01/19 12:21:31;;;;;;;37.58;16.05;;;;;;;4.49;71.65;100865.31;4979950;28;20043;-89
2022/01/19 12:24:27;;;;;;;76.50;35.00;;;;;;;4.50;71.12;100853.88;4960970;28;20625;-89
2022/01/19 12:27:02;;;;;;;39.20;17.17;;;;;;;4.49;71.47;100860.03;4966158;28;20105;-88
2022/01/19 12:29:36;;;;;;;43.75;19.25;;;;;;;4.46;71.50;100844.41;4980354;28;20058;-88
2022/01/19 12:32:06;;;;;;;42.92;17.08;;;;;;;4.44;71.79;100848.03;4989262;28;20053;-88
2022/01/19 12:34:52;;;;;;;43.38;17.17;;;;;;;4.42;71.49;100842.00;4950646;28;20041;-88
2022/01/19 12:37:45;;;;;;;42.13;16.90;;;;;;;4.38;71.45;100838.66;4993415;28;20051;-89
2022/01/19 12:40:12;;;;;;;46.05;18.48;;;;;;;4.42;71.66;100827.06;4991283;28;20486;-88
2022/01/19 12:42:45;;;;;;;37.03;16.90;;;;;;;4.40;71.78;100826.31;4976749;28;20046;-86
2022/01/19 12:45:28;;;;;;;43.90;16.65;;;;;;;4.42;71.73;100826.22;4982804;28;20050;-87
2022/01/19 12:48:06;;;;;;;38.20;15.27;;;;;;;4.36;71.78;100819.47;4956985;28;20371;-85
2022/01/19 12:50:47;;;;;;;39.33;17.17;;;;;;;4.43;71.99;100820.06;4978668;28;20035;-85
2022/01/19 12:53:23;;;;;;;46.42;18.33;;;;;;;4.39;71.75;100819.31;4972121;28;20091;-85
2022/01/19 12:55:56;;;;;;;46.80;16.42;;;;;;;4.41;71.70;100809.59;5019944;28;20046;-84
2022/01/19 12:58:32;;;;;;;46.80;16.75;;;;;;;4.37;72.00;100808.03;4974397;28;20046;-86
2022/01/19 13:01:08;;;;;;;40.75;16.27;;;;;;;4.37;71.93;100794.88;4934418;28;20121;-85
2022/01/19 13:03:40;;;;;;;53.67;19.42;;;;;;;4.41;72.03;100790.34;4989281;28;20398;-85
2022/01/19 13:06:13;;;;;;;44.22;16.33;;;;;;;4.42;72.03;100779.72;4968705;28;20077;-86
2022/01/19 13:08:56;;;;;;;48.33;16.73;;;;;;;4.38;72.09;100778.19;4974301;28;20116;-86
2022/01/19 13:11:41;;;;;;;48.28;18.42;;;;;;;4.41;72.16;100775.41;4960035;28;20057;-85
2022/01/19 13:14:13;;;;;;;41.45;16.38;;;;;;;4.35;72.11;100781.81;4968327;28;20045;-85
2022/01/19 13:16:46;;;;;;;40.17;16.10;;;;;;;4.36;72.00;100780.03;5024671;28;20056;-86
2022/01/19 13:19:22;;;;;;;41.08;15.48;;;;;;;4.34;72.11;100782.72;5003099;28;20769;-86
2022/01/19 13:21:58;;;;;;;40.80;16.52;;;;;;;4.36;72.26;100785.28;4967991;28;20049;-85
2022/01/19 13:24:27;;;;;;;43.13;16.10;;;;;;;4.37;72.24;100778.25;5021381;28;20085;-84